Airfield :
LOGIN :

Register | Disclaimer

   EN    FR    IT 

 










Legend :    VFR   Marginal VFR   IFR   Intensive IFR   Very Intensive IFR
Visi :
Ceiling :
>= 8 km
>= 3000ft
5 to 8 km
1000 to 3000 ft
1500m to 5 km
500 to 1000 ft
800 to 1500m
200 to 500 ft
< 800m
< 200 ft
Symbols :   Thunderstorms  Fog  Heavy snow  Heavy precipitations  Wind > 20 kt
SIGMETs :     Misc.  Thunderstorms  Icing  Turbulence  Mountain Waves  Volcanic Ashes






- Airport Elevation : 202 ft
- IATA code : LGW


EGKK - London Gatwick

EXPIRED METARs :
  • 280250Z 20002KT 4500 BR MIFG SCT014 06/06 Q1008
  • 280220Z 17003KT 4500 BR MIFG FEW015 06/06 Q1008
  • 280150Z 18002KT 4000 R26L/1300U BR MIFG SCT012 06/06 Q1008
  • 272220Z 22005KT 9999 FEW007 SCT012 10/09 Q1009

TAF AMD TAF EGKK
Valid from the 28 at 00:00 until the 29 at 06:00 UTC


280031Z 2800/2906 22004KT 9999 SCT013
TEMPO 2800/2809 4000 BR
PROB30 2800/2808 0300 FG BKN001
PROB30
TEMPO 2809/2818 4000 SHRA
TEMPO 2820/2906 3500 BR
PROB30
TEMPO 2822/2906 0300 FG VV///



MET'MAP, your aeronautical weather chart ! - Copyright ORBIFLY December 2007 - Disclaimer

ORBIFLY MET'MAP TEAM :

Programming & Development : Alexandra Zaïnal
Original concept : Baudouin d'Aumeries
Technical & hardware support : Manuel Goepfert
Assistance : Marc-Olivier Méhu




SOURCES & CREDITS :

   NOAA